Time;durP1;ratioP1;P1;durP2;ratioP2;P2;SDS_P1;SDS_P2;PMS_P1;PMS_P2;Temp;Humidity;BMP_temperature;BMP_pressure;BME280_temperature;BME280_humidity;BME280_pressure;Samples;Min_cycle;Max_cycle;Signal;HPM_P1;HPM_P2
2021/12/09 00:01:41;;;;;;;;;;;15.80;44.30;14.70;99824.00;;;;5075077;28;19915;-62
2021/12/09 00:04:30;;;;;;;;;;;15.90;44.40;14.70;99820.00;;;;5087315;28;19924;-62
2021/12/09 00:07:16;;;;;;;;;;;15.80;44.30;14.70;99826.00;;;;5074968;28;19952;-62
2021/12/09 00:10:06;;;;;;;;;;;15.80;44.30;14.70;99823.00;;;;5076510;28;20262;-62
2021/12/09 00:12:52;;;;;;;;;;;15.90;44.30;14.70;99833.00;;;;5076634;28;20379;-62
2021/12/09 00:15:38;;;;;;;;;;;15.80;44.30;14.70;99834.00;;;;5087066;28;19924;-62
2021/12/09 00:18:25;;;;;;;;;;;15.90;44.40;14.70;99826.00;;;;5074552;28;19923;-62
2021/12/09 00:21:11;;;;;;;;;;;15.80;44.30;14.70;99827.00;;;;5084424;28;19921;-62
2021/12/09 00:23:57;;;;;;;;;;;15.80;44.30;14.70;99833.00;;;;5070337;28;19920;-62
2021/12/09 00:26:46;;;;;;;;;;;15.80;44.30;14.70;99829.00;;;;5059923;28;20011;-61
2021/12/09 00:29:32;;;;;;;;;;;15.80;44.30;14.70;99833.00;;;;5075690;28;19955;-62
2021/12/09 00:32:19;;;;;;;;;;;15.80;44.30;14.70;99828.00;;;;5081766;28;19951;-61
2021/12/09 00:35:06;;;;;;;;;;;15.80;44.30;14.70;99836.00;;;;5078736;28;19917;-62
2021/12/09 00:38:00;;;;;;;;;;;15.80;44.30;14.70;99841.00;;;;5071272;28;20360;-62
2021/12/09 00:40:47;;;;;;;;;;;15.80;44.30;14.70;99843.00;;;;5068636;28;20388;-62
2021/12/09 00:43:34;;;;;;;;;;;15.80;44.30;14.70;99840.00;;;;5052433;28;20361;-62
2021/12/09 00:46:20;;;;;;;;;;;15.80;44.30;14.70;99838.00;;;;5068275;28;19928;-62
2021/12/09 00:49:06;;;;;;;;;;;15.80;44.20;14.70;99840.00;;;;5051099;28;20308;-62
2021/12/09 00:51:52;;;;;;;;;;;15.80;44.30;14.70;99836.00;;;;5084126;28;19916;-62
2021/12/09 00:54:40;;;;;;;;;;;15.80;44.20;14.70;99842.00;;;;5073885;28;19916;-62
2021/12/09 00:57:27;;;;;;;;;;;15.80;44.20;14.70;99840.00;;;;5063569;28;19916;-62
2021/12/09 01:00:16;;;;;;;;;;;15.80;44.20;14.70;99838.00;;;;5067428;28;19962;-62
2021/12/09 01:03:02;;;;;;;;;;;15.80;44.20;14.70;99840.00;;;;5056166;28;20285;-62
2021/12/09 01:05:49;;;;;;;;;;;15.80;44.20;14.70;99838.00;;;;5064328;28;19948;-61
2021/12/09 01:08:35;;;;;;;;;;;15.80;44.20;14.70;99835.00;;;;5084372;28;19924;-62
2021/12/09 01:11:21;;;;;;;;;;;15.80;44.30;14.70;99835.00;;;;5057959;28;19979;-61
2021/12/09 01:14:07;;;;;;;;;;;15.80;44.30;14.70;99836.00;;;;5070387;28;19917;-62
2021/12/09 01:16:53;;;;;;;;;;;15.80;44.30;14.70;99840.00;;;;5086519;28;19923;-62
2021/12/09 01:19:40;;;;;;;;;;;15.80;44.20;14.70;99833.00;;;;5082664;28;20369;-63
2021/12/09 01:22:34;;;;;;;;;;;15.80;44.20;14.70;99840.00;;;;5080476;28;19916;-62
2021/12/09 01:25:21;;;;;;;;;;;15.80;44.20;14.70;99840.00;;;;5074970;28;19921;-62
2021/12/09 01:28:09;;;;;;;;;;;15.80;44.20;14.70;99841.00;;;;5067162;28;19927;-62
2021/12/09 01:31:01;;;;;;;;;;;15.80;44.20;14.70;99850.00;;;;5078064;28;19955;-62
2021/12/09 01:33:52;;;;;;;;;;;15.80;44.20;14.70;99847.00;;;;5091887;28;20353;-62
2021/12/09 01:36:38;;;;;;;;;;;15.80;44.20;14.70;99852.00;;;;5065367;28;20166;-62
2021/12/09 01:39:27;;;;;;;;;;;15.80;44.20;14.70;99850.00;;;;5064203;28;20034;-62
2021/12/09 01:42:13;;;;;;;;;;;15.80;44.20;14.70;99848.00;;;;5078273;28;19916;-62
2021/12/09 01:44:59;;;;;;;;;;;15.80;44.20;14.70;99855.00;;;;5069590;28;19931;-62
2021/12/09 01:47:45;;;;;;;;;;;15.80;44.20;14.70;99860.00;;;;5067011;28;20358;-62
2021/12/09 01:50:33;;;;;;;;;;;15.90;44.20;14.70;99864.00;;;;5066016;28;20431;-62
2021/12/09 01:53:19;;;;;;;;;;;15.80;44.20;14.70;99876.00;;;;5071366;28;19924;-62
2021/12/09 01:56:11;;;;;;;;;;;15.80;44.20;14.70;99871.00;;;;5063822;28;19996;-62
2021/12/09 01:58:59;;;;;;;;;;;15.80;44.10;14.70;99876.00;;;;5056654;28;19916;-62
2021/12/09 02:01:45;;;;;;;;;;;15.80;44.10;14.70;99871.00;;;;5054060;28;20270;-62
2021/12/09 02:04:31;;;;;;;;;;;15.80;44.10;14.70;99874.00;;;;5063221;28;19923;-62
2021/12/09 02:07:17;;;;;;;;;;;15.80;44.10;14.70;99872.00;;;;5077548;28;20366;-62
2021/12/09 02:10:05;;;;;;;;;;;15.80;44.10;14.70;99868.00;;;;5075615;28;20366;-62
2021/12/09 02:12:51;;;;;;;;;;;15.80;44.10;14.70;99870.00;;;;5058745;28;19970;-62
2021/12/09 02:15:39;;;;;;;;;;;15.80;44.10;14.70;99870.00;;;;5074901;28;19920;-62
2021/12/09 02:18:25;;;;;;;;;;;15.80;44.10;14.70;99874.00;;;;5073184;28;19917;-62
2021/12/09 02:21:21;;;;;;;;;;;15.80;44.10;14.70;99874.00;;;;5074192;28;19917;-63
2021/12/09 02:24:09;;;;;;;;;;;15.90;44.20;14.70;99870.00;;;;5077854;28;20443;-62
2021/12/09 02:26:55;;;;;;;;;;;15.80;44.10;14.70;99865.00;;;;5071888;28;19917;-62
2021/12/09 02:29:41;;;;;;;;;;;15.80;44.10;14.70;99870.00;;;;5051178;28;19944;-62
2021/12/09 02:32:27;;;;;;;;;;;15.80;44.00;14.70;99871.00;;;;5059495;28;19920;-62
2021/12/09 02:35:13;;;;;;;;;;;15.80;44.10;14.70;99866.00;;;;5058732;28;19943;-62
2021/12/09 02:37:59;;;;;;;;;;;15.80;44.10;14.70;99873.00;;;;5065819;28;19921;-61
2021/12/09 02:40:48;;;;;;;;;;;15.80;44.10;14.70;99873.00;;;;5070389;28;19917;-62
2021/12/09 02:43:34;;;;;;;;;;;15.80;44.00;14.70;99866.00;;;;5071004;28;19944;-62
2021/12/09 02:46:21;;;;;;;;;;;15.80;44.00;14.70;99867.00;;;;5048149;28;19939;-62
2021/12/09 02:49:13;;;;;;;;;;;15.80;44.10;14.70;99859.00;;;;5075400;28;19920;-62
2021/12/09 02:52:00;;;;;;;;;;;15.80;44.00;14.70;99861.00;;;;5069819;28;20011;-62
2021/12/09 02:54:46;;;;;;;;;;;15.80;44.00;14.70;99859.00;;;;5082010;28;19917;-62
2021/12/09 02:57:32;;;;;;;;;;;15.80;44.00;14.70;99865.00;;;;5068123;28;19917;-62
2021/12/09 03:00:20;;;;;;;;;;;15.80;44.00;14.70;99857.00;;;;5073570;28;19920;-62
2021/12/09 03:03:08;;;;;;;;;;;15.80;44.00;14.70;99863.00;;;;5054427;28;19923;-61
2021/12/09 03:05:57;;;;;;;;;;;15.80;44.00;14.70;99852.00;;;;5073283;28;19950;-62
2021/12/09 03:08:44;;;;;;;;;;;15.80;44.10;14.70;99855.00;;;;5054085;28;20255;-62
2021/12/09 03:11:30;;;;;;;;;;;15.80;44.00;14.70;99871.00;;;;5054935;28;19920;-62
2021/12/09 03:14:16;;;;;;;;;;;15.80;44.00;14.70;99860.00;;;;5054979;28;19920;-63
2021/12/09 03:17:02;;;;;;;;;;;15.80;44.00;14.70;99870.00;;;;5071306;28;19920;-62
2021/12/09 03:19:48;;;;;;;;;;;15.80;44.00;14.70;99861.00;;;;5074966;28;19920;-62
2021/12/09 03:22:38;;;;;;;;;;;15.80;44.00;14.70;99867.00;;;;5089800;27;19923;-62
2021/12/09 03:25:24;;;;;;;;;;;15.80;44.00;14.70;99875.00;;;;5064351;28;20391;-62
2021/12/09 03:28:10;;;;;;;;;;;15.80;44.00;14.70;99875.00;;;;5047717;28;20013;-62
2021/12/09 03:30:56;;;;;;;;;;;15.80;44.00;14.70;99871.00;;;;5074764;28;21709;-62
2021/12/09 03:33:42;;;;;;;;;;;15.80;44.00;14.70;99877.00;;;;5071224;28;19917;-62
2021/12/09 03:36:29;;;;;;;;;;;15.80;44.00;14.70;99878.00;;;;5073424;28;20022;-61
2021/12/09 03:39:18;;;;;;;;;;;15.80;44.00;14.70;99881.00;;;;5079474;28;19920;-62
2021/12/09 03:42:05;;;;;;;;;;;15.80;44.00;14.70;99871.00;;;;5072889;28;19916;-62
2021/12/09 03:44:51;;;;;;;;;;;15.80;44.00;14.70;99873.00;;;;5059047;28;19923;-62
2021/12/09 03:47:38;;;;;;;;;;;15.80;44.00;14.70;99879.00;;;;5052920;28;19947;-62
2021/12/09 03:50:24;;;;;;;;;;;15.80;44.00;14.70;99873.00;;;;5078846;28;20030;-61
2021/12/09 03:53:10;;;;;;;;;;;15.80;44.00;14.70;99862.00;;;;5071395;28;19945;-62
2021/12/09 03:55:56;;;;;;;;;;;15.80;44.00;14.70;99876.00;;;;5058310;28;20421;-62
2021/12/09 03:58:42;;;;;;;;;;;15.80;44.00;14.70;99877.00;;;;5037197;28;20024;-62
2021/12/09 04:01:28;;;;;;;;;;;15.80;44.00;14.70;99872.00;;;;5078972;28;19924;-62
2021/12/09 04:04:14;;;;;;;;;;;15.80;44.00;14.70;99872.00;;;;5065858;28;19923;-62
2021/12/09 04:07:00;;;;;;;;;;;15.80;44.00;14.70;99876.00;;;;5066965;28;20282;-62
2021/12/09 04:09:46;;;;;;;;;;;15.80;43.90;14.70;99868.00;;;;5073745;28;19930;-62
2021/12/09 04:12:32;;;;;;;;;;;15.80;43.90;14.70;99864.00;;;;5063668;28;20298;-61
2021/12/09 04:15:18;;;;;;;;;;;15.80;43.90;14.70;99865.00;;;;5072552;28;20362;-62
2021/12/09 04:18:05;;;;;;;;;;;15.80;43.90;14.70;99872.00;;;;5076312;28;19999;-62
2021/12/09 04:20:51;;;;;;;;;;;15.80;44.00;14.70;99872.00;;;;5072162;28;19946;-62
2021/12/09 04:23:37;;;;;;;;;;;15.80;43.90;14.70;99868.00;;;;5066592;28;19955;-62
2021/12/09 04:26:23;;;;;;;;;;;15.80;43.90;14.70;99878.00;;;;5067507;28;20288;-62
2021/12/09 04:29:09;;;;;;;;;;;15.80;43.90;14.70;99875.00;;;;5071630;28;19925;-62
2021/12/09 04:31:55;;;;;;;;;;;15.80;43.90;14.70;99875.00;;;;5063613;28;19920;-62
2021/12/09 04:34:41;;;;;;;;;;;15.80;43.90;14.70;99879.00;;;;5060638;28;19919;-62
2021/12/09 04:37:27;;;;;;;;;;;15.80;44.00;14.60;99887.00;;;;5074605;28;19923;-62
2021/12/09 04:40:14;;;;;;;;;;;15.80;43.90;14.60;99881.00;;;;5089806;28;19940;-62
2021/12/09 04:43:03;;;;;;;;;;;15.80;44.00;14.60;99882.00;;;;5089841;28;19917;-62
2021/12/09 04:45:49;;;;;;;;;;;15.80;43.90;14.60;99886.00;;;;5060200;28;20149;-62
2021/12/09 04:48:35;;;;;;;;;;;15.80;43.90;14.60;99897.00;;;;5083817;28;19973;-62
2021/12/09 04:51:21;;;;;;;;;;;15.80;43.90;14.60;99887.00;;;;5071664;28;19928;-61
2021/12/09 04:54:07;;;;;;;;;;;15.80;43.90;14.60;99881.00;;;;5084010;28;19916;-62
2021/12/09 04:56:53;;;;;;;;;;;15.80;43.90;14.60;99890.00;;;;5084787;28;20461;-62
2021/12/09 04:59:39;;;;;;;;;;;15.80;43.90;14.60;99894.00;;;;5075374;28;19917;-62
2021/12/09 05:02:42;;;;;;;;;;;15.80;43.90;14.60;99886.00;;;;5067653;28;19983;-62
2021/12/09 05:05:38;;;;;;;;;;;15.80;43.90;14.60;99890.00;;;;5049708;28;19951;-62
2021/12/09 05:08:27;;;;;;;;;;;15.80;43.90;14.60;99896.00;;;;5063581;28;19928;-62
2021/12/09 05:11:28;;;;;;;;;;;15.70;43.90;14.60;99894.00;;;;5076622;28;19922;-61
2021/12/09 05:14:15;;;;;;;;;;;15.80;43.90;14.60;99892.00;;;;5063491;28;19923;-62
2021/12/09 05:17:03;;;;;;;;;;;15.80;43.90;14.60;99882.00;;;;5081651;28;19924;-62
2021/12/09 05:19:49;;;;;;;;;;;15.80;43.90;14.60;99893.00;;;;5039445;28;19920;-62
2021/12/09 05:22:35;;;;;;;;;;;15.80;43.90;14.60;99890.00;;;;5060774;28;20273;-62
2021/12/09 05:25:22;;;;;;;;;;;15.80;43.90;14.60;99903.00;;;;5088924;28;20220;-62
2021/12/09 05:28:09;;;;;;;;;;;15.80;43.90;14.60;99895.00;;;;5061328;28;19920;-62
2021/12/09 05:34:00;;;;;;;;;;;15.80;43.90;14.60;99900.00;;;;5059449;28;19916;-62
2021/12/09 05:36:46;;;;;;;;;;;15.80;43.90;14.60;99907.00;;;;5075660;28;20342;-62
2021/12/09 05:39:32;;;;;;;;;;;15.80;43.90;14.70;99912.00;;;;5066099;28;19931;-62
2021/12/09 05:42:20;;;;;;;;;;;15.80;43.90;14.60;99919.00;;;;5076031;28;19959;-62
2021/12/09 05:45:07;;;;;;;;;;;15.80;43.90;14.60;99926.00;;;;5060669;28;20092;-62
2021/12/09 05:47:53;;;;;;;;;;;15.80;43.90;14.60;99929.00;;;;5058524;28;19924;-63
2021/12/09 05:50:39;;;;;;;;;;;15.80;43.90;14.60;99945.00;;;;5080494;28;20344;-62
2021/12/09 05:53:25;;;;;;;;;;;15.80;43.90;14.60;99947.00;;;;5093846;28;19946;-61
2021/12/09 05:56:12;;;;;;;;;;;15.80;43.90;14.60;99943.00;;;;5056946;28;19916;-62
2021/12/09 05:58:58;;;;;;;;;;;15.80;43.90;14.60;99940.00;;;;5070205;28;20297;-62
2021/12/09 06:01:44;;;;;;;;;;;15.80;43.90;14.60;99948.00;;;;5055102;28;20392;-62
2021/12/09 06:04:30;;;;;;;;;;;15.80;43.90;14.60;99944.00;;;;5068182;28;20457;-63
2021/12/09 06:07:16;;;;;;;;;;;15.80;43.90;14.60;99946.00;;;;5067084;28;19948;-62
2021/12/09 06:10:04;;;;;;;;;;;15.80;43.90;14.60;99940.00;;;;5064825;28;19958;-62
2021/12/09 06:12:50;;;;;;;;;;;15.80;43.90;14.60;99945.00;;;;5072371;28;20019;-62
2021/12/09 06:15:36;;;;;;;;;;;15.80;43.90;14.60;99945.00;;;;5057711;28;19920;-62
2021/12/09 06:18:22;;;;;;;;;;;15.80;43.90;14.60;99949.00;;;;5066655;28;20396;-62
2021/12/09 06:21:08;;;;;;;;;;;15.80;43.90;14.60;99951.00;;;;5070421;28;19998;-62
2021/12/09 06:23:55;;;;;;;;;;;15.80;43.90;14.60;99958.00;;;;5069587;28;20372;-62
2021/12/09 06:26:41;;;;;;;;;;;15.80;43.90;14.60;99958.00;;;;5073008;28;19974;-62
2021/12/09 06:29:28;;;;;;;;;;;15.80;44.60;14.60;99952.00;;;;5068603;28;19961;-62
2021/12/09 06:32:14;;;;;;;;;;;15.80;43.90;14.60;99966.00;;;;5050265;28;19917;-62
2021/12/09 06:35:00;;;;;;;;;;;15.80;43.80;14.60;99956.00;;;;5066834;28;20358;-62
2021/12/09 06:37:48;;;;;;;;;;;15.70;43.90;14.60;99952.00;;;;5046075;28;19917;-62
2021/12/09 06:40:34;;;;;;;;;;;15.70;43.80;14.60;99955.00;;;;5051982;28;19921;-62
2021/12/09 06:43:22;;;;;;;;;;;15.80;43.80;14.60;99956.00;;;;5060178;28;19967;-62
2021/12/09 06:46:09;;;;;;;;;;;15.70;43.80;14.60;99948.00;;;;5054592;28;20262;-62
2021/12/09 06:48:55;;;;;;;;;;;15.70;43.80;14.60;99948.00;;;;5066296;28;19928;-62
2021/12/09 06:51:41;;;;;;;;;;;15.70;43.80;14.60;99948.00;;;;5048303;28;19932;-62
2021/12/09 06:54:27;;;;;;;;;;;15.70;43.80;14.60;99952.00;;;;5071620;28;21016;-62
2021/12/09 06:57:13;;;;;;;;;;;15.70;43.80;14.60;99959.00;;;;5051321;28;20332;-62
2021/12/09 06:59:59;;;;;;;;;;;15.70;43.80;14.60;99966.00;;;;5076387;28;19916;-62
2021/12/09 07:02:46;;;;;;;;;;;15.70;43.80;14.60;99965.00;;;;5075131;28;20289;-61
2021/12/09 07:05:32;;;;;;;;;;;15.70;43.80;14.60;99966.00;;;;5074384;28;19969;-61
2021/12/09 07:08:18;;;;;;;;;;;15.70;43.80;14.60;99963.00;;;;5083894;28;20258;-62
2021/12/09 07:11:04;;;;;;;;;;;15.70;43.80;14.60;99952.00;;;;5071940;28;19921;-62
2021/12/09 07:13:50;;;;;;;;;;;15.70;43.80;14.60;99964.00;;;;5066768;28;20277;-62
2021/12/09 07:16:37;;;;;;;;;;;15.70;43.80;14.60;99968.00;;;;5063161;28;20003;-62
2021/12/09 07:19:23;;;;;;;;;;;15.70;43.80;14.60;99964.00;;;;5069480;28;19962;-61
2021/12/09 07:22:09;;;;;;;;;;;15.70;43.80;14.60;99961.00;;;;5067522;28;19972;-62
2021/12/09 07:24:55;;;;;;;;;;;15.70;43.80;14.50;99959.00;;;;5075419;28;19917;-62
2021/12/09 07:27:41;;;;;;;;;;;15.70;43.80;14.50;99966.00;;;;5074304;28;19924;-61
2021/12/09 07:30:28;;;;;;;;;;;15.70;43.80;14.50;99970.00;;;;5072930;28;20391;-62
2021/12/09 07:33:14;;;;;;;;;;;15.70;43.80;14.50;99972.00;;;;5080286;28;19916;-62
2021/12/09 07:36:00;;;;;;;;;;;15.70;43.80;14.50;99974.00;;;;5074550;28;19978;-62
2021/12/09 07:38:47;;;;;;;;;;;15.60;43.70;14.50;99970.00;;;;5059948;28;19943;-62
2021/12/09 07:41:33;;;;;;;;;;;15.60;43.70;14.50;99978.00;;;;5058493;28;19916;-62
2021/12/09 07:44:20;;;;;;;;;;;15.60;43.70;14.50;99981.00;;;;5090359;28;20335;-62
2021/12/09 07:47:06;;;;;;;;;;;15.60;43.70;14.50;99989.00;;;;5075638;28;19955;-62
2021/12/09 07:49:52;;;;;;;;;;;15.60;43.70;14.50;99986.00;;;;5079491;28;19920;-62
2021/12/09 07:52:38;;;;;;;;;;;15.60;43.70;14.50;99991.00;;;;5070528;28;19923;-62
2021/12/09 07:55:24;;;;;;;;;;;15.60;43.70;14.50;99987.00;;;;5070399;28;19917;-62
2021/12/09 07:58:11;;;;;;;;;;;15.60;43.70;14.50;99980.00;;;;5069829;28;19951;-62
2021/12/09 08:00:57;;;;;;;;;;;15.60;43.70;14.50;99984.00;;;;5064855;28;19916;-62
2021/12/09 08:03:44;;;;;;;;;;;15.60;43.80;14.50;99989.00;;;;5064992;28;19917;-62
2021/12/09 08:06:31;;;;;;;;;;;15.60;43.70;14.50;99982.00;;;;5048745;28;19928;-62
2021/12/09 08:09:17;;;;;;;;;;;15.60;43.70;14.50;99987.00;;;;5077412;28;20015;-62
2021/12/09 08:12:07;;;;;;;;;;;15.60;43.70;14.50;99984.00;;;;5062972;28;20009;-62
2021/12/09 08:14:53;;;;;;;;;;;15.60;43.70;14.50;99987.00;;;;5085891;28;19955;-62
2021/12/09 08:20:29;;;;;;;;;;;15.60;43.70;14.50;99994.00;;;;5063319;28;19920;-62
2021/12/09 08:23:15;;;;;;;;;;;15.60;43.70;14.50;99985.00;;;;5084032;28;19916;-61
2021/12/09 08:26:01;;;;;;;;;;;15.60;43.70;14.50;99987.00;;;;5074687;28;19923;-62
2021/12/09 08:28:48;;;;;;;;;;;15.60;43.70;14.50;99985.00;;;;5070091;28;19925;-62
2021/12/09 08:31:34;;;;;;;;;;;15.60;43.70;14.50;99990.00;;;;5071668;28;19920;-62
2021/12/09 08:34:20;;;;;;;;;;;15.60;43.70;14.40;99987.00;;;;5070571;28;19924;-61
2021/12/09 08:37:06;;;;;;;;;;;15.60;43.70;14.40;99990.00;;;;5067423;28;19970;-61
2021/12/09 08:39:52;;;;;;;;;;;15.60;43.70;14.40;99992.00;;;;4985964;28;1890475;-62
2021/12/09 08:42:38;;;;;;;;;;;15.60;43.70;14.40;100001.00;;;;5053218;28;19931;-62
2021/12/09 08:45:25;;;;;;;;;;;15.60;43.70;14.40;100001.00;;;;5064921;28;19920;-61
2021/12/09 08:48:11;;;;;;;;;;;15.60;43.70;14.40;99996.00;;;;5058638;28;20385;-61
2021/12/09 08:50:57;;;;;;;;;;;15.60;43.70;14.40;100006.00;;;;5086282;28;20034;-61
2021/12/09 08:53:43;;;;;;;;;;;15.60;43.70;14.40;99999.00;;;;5061636;28;19917;-61
2021/12/09 08:56:29;;;;;;;;;;;15.60;43.70;14.40;99999.00;;;;5068815;28;19924;-62
2021/12/09 08:59:16;;;;;;;;;;;15.60;43.70;14.50;99998.00;;;;5040569;28;19970;-61
2021/12/09 09:02:02;;;;;;;;;;;15.60;43.70;14.50;99999.00;;;;5064814;28;20373;-62
2021/12/09 09:04:48;;;;;;;;;;;15.60;43.70;14.50;100009.00;;;;5062453;28;20314;-62
2021/12/09 09:07:34;;;;;;;;;;;15.60;43.70;14.50;100009.00;;;;5090865;28;19993;-62
2021/12/09 09:10:26;;;;;;;;;;;15.60;43.60;14.50;100011.00;;;;5060590;28;19925;-62
2021/12/09 09:13:13;;;;;;;;;;;15.60;43.70;14.50;100007.00;;;;5053115;28;19959;-62
2021/12/09 09:15:59;;;;;;;;;;;15.60;43.70;14.50;100012.00;;;;5056700;28;19924;-62
2021/12/09 09:18:45;;;;;;;;;;;15.60;43.70;14.50;100015.00;;;;5065656;28;19924;-62
2021/12/09 09:21:34;;;;;;;;;;;15.60;43.60;14.50;100010.00;;;;5071593;28;19920;-62
2021/12/09 09:24:20;;;;;;;;;;;15.60;43.70;14.50;100011.00;;;;5055417;28;20331;-62
2021/12/09 09:27:06;;;;;;;;;;;15.60;43.70;14.50;100006.00;;;;5069678;28;19923;-61
2021/12/09 09:29:52;;;;;;;;;;;15.60;43.60;14.50;100009.00;;;;5053122;28;19921;-62
2021/12/09 09:32:39;;;;;;;;;;;15.60;43.60;14.50;100025.00;;;;5088262;27;20336;-62
2021/12/09 09:35:25;;;;;;;;;;;15.60;43.60;14.50;100026.00;;;;5065997;28;19920;-63
2021/12/09 09:38:14;;;;;;;;;;;15.60;43.60;14.50;100025.00;;;;5087069;28;19916;-62
2021/12/09 09:41:09;;;;;;;;;;;15.60;43.60;14.50;100025.00;;;;5084237;28;19962;-62
2021/12/09 09:43:58;;;;;;;;;;;15.60;43.60;14.50;100025.00;;;;5063808;28;19916;-62
2021/12/09 09:46:44;;;;;;;;;;;15.60;43.70;14.50;100027.00;;;;5084288;28;20009;-62
2021/12/09 09:49:34;;;;;;;;;;;15.60;43.60;14.50;100024.00;;;;5059553;28;20018;-62
2021/12/09 09:52:20;;;;;;;;;;;15.60;43.60;14.50;100028.00;;;;5053407;28;19916;-61
2021/12/09 09:55:09;;;;;;;;;;;15.60;43.60;14.50;100026.00;;;;5066296;28;19986;-61
2021/12/09 09:57:55;;;;;;;;;;;15.60;43.70;14.50;100028.00;;;;5075029;28;20237;-62
2021/12/09 10:00:41;;;;;;;;;;;15.60;43.60;14.50;100025.00;;;;5072027;28;20390;-62
2021/12/09 10:03:30;;;;;;;;;;;15.60;43.60;14.50;100021.00;;;;5076333;28;19916;-61
2021/12/09 10:06:16;;;;;;;;;;;15.60;43.60;14.50;100021.00;;;;5068842;28;20273;-62
2021/12/09 10:09:04;;;;;;;;;;;15.60;43.70;14.50;100029.00;;;;5053882;28;20368;-62
2021/12/09 10:11:50;;;;;;;;;;;15.60;43.60;14.50;100032.00;;;;5085627;28;19925;-61
2021/12/09 10:14:36;;;;;;;;;;;15.60;43.60;14.40;100025.00;;;;5075891;28;20003;-61
2021/12/09 10:17:26;;;;;;;;;;;15.60;43.60;14.40;100034.00;;;;5079284;28;19920;-62
2021/12/09 10:20:12;;;;;;;;;;;15.60;43.60;14.40;100025.00;;;;5089373;28;19962;-62
2021/12/09 10:22:58;;;;;;;;;;;15.60;43.60;14.40;100027.00;;;;5071683;28;19920;-62
2021/12/09 10:25:44;;;;;;;;;;;15.60;43.60;14.40;100024.00;;;;5074992;28;19920;-62
2021/12/09 10:28:32;;;;;;;;;;;15.60;43.60;14.40;100029.00;;;;5077482;28;19928;-62
2021/12/09 10:31:27;;;;;;;;;;;15.60;43.60;14.40;100026.00;;;;5062773;28;19920;-62
2021/12/09 10:34:40;;;;;;;;;;;15.60;43.70;14.40;100020.00;;;;5084810;28;19917;-62
2021/12/09 10:37:30;;;;;;;;;;;15.60;43.70;14.40;100024.00;;;;5041381;28;19962;-62
2021/12/09 10:40:26;;;;;;;;;;;15.60;43.70;14.40;100014.00;;;;5072392;28;19943;-62
2021/12/09 10:43:16;;;;;;;;;;;15.50;43.70;14.40;100014.00;;;;5059903;28;19927;-62
2021/12/09 10:46:04;;;;;;;;;;;15.60;43.70;14.40;100015.00;;;;5069526;28;20255;-61
2021/12/09 10:48:50;;;;;;;;;;;15.60;43.70;14.40;100013.00;;;;5068130;28;19974;-62
2021/12/09 10:51:44;;;;;;;;;;;15.50;43.70;14.40;100009.00;;;;5061734;28;19985;-62
2021/12/09 10:54:32;;;;;;;;;;;15.60;43.70;14.40;100003.00;;;;5063258;28;20284;-62
2021/12/09 10:57:30;;;;;;;;;;;15.50;43.70;14.40;100002.00;;;;5055507;28;19916;-61
2021/12/09 11:00:39;;;;;;;;;;;15.60;43.70;14.40;100009.00;;;;5056789;28;20086;-61
2021/12/09 11:03:42;;;;;;;;;;;15.50;43.70;14.40;100002.00;;;;5060539;28;19916;-62
2021/12/09 11:06:35;;;;;;;;;;;15.50;43.70;14.30;99995.00;;;;5064306;28;19916;-61
2021/12/09 11:09:21;;;;;;;;;;;15.50;43.70;14.40;99988.00;;;;5077164;28;19927;-62
2021/12/09 11:12:08;;;;;;;;;;;15.50;43.70;14.40;99985.00;;;;5074697;28;19916;-61
2021/12/09 11:15:00;;;;;;;;;;;15.50;43.70;14.40;99972.00;;;;5043791;28;19916;-62
2021/12/09 11:17:49;;;;;;;;;;;15.50;43.70;14.40;99965.00;;;;5072535;28;19916;-62
2021/12/09 11:20:44;;;;;;;;;;;15.50;43.70;14.40;99965.00;;;;5074014;28;19917;-61
2021/12/09 11:23:34;;;;;;;;;;;15.50;43.80;14.30;99967.00;;;;5051459;28;19928;-61
2021/12/09 11:26:48;;;;;;;;;;;15.50;43.70;14.40;99966.00;;;;5091436;28;19967;-61
2021/12/09 11:29:46;;;;;;;;;;;15.50;43.70;14.40;99969.00;;;;5069051;28;20274;-62
2021/12/09 11:32:46;;;;;;;;;;;15.50;43.70;14.40;99972.00;;;;5063972;28;19983;-61
2021/12/09 11:35:35;;;;;;;;;;;15.50;43.70;14.30;99960.00;;;;5089386;28;19916;-62
2021/12/09 11:38:42;;;;;;;;;;;15.50;43.80;14.30;99954.00;;;;5041841;28;19920;-62
2021/12/09 11:41:32;;;;;;;;;;;15.50;43.80;14.40;99960.00;;;;5080836;28;19916;-62
2021/12/09 11:44:18;;;;;;;;;;;15.50;43.70;14.30;99958.00;;;;5066837;28;19923;-62
2021/12/09 11:47:04;;;;;;;;;;;15.50;43.80;14.30;99954.00;;;;5076264;28;19938;-62
2021/12/09 11:49:53;;;;;;;;;;;15.50;43.80;14.30;99960.00;;;;5060109;28;19970;-62
2021/12/09 11:52:42;;;;;;;;;;;15.50;43.80;14.30;99958.00;;;;5069634;28;19916;-62
2021/12/09 11:55:34;;;;;;;;;;;15.50;43.80;14.30;99956.00;;;;5094220;28;20258;-62
2021/12/09 11:58:26;;;;;;;;;;;15.50;43.80;14.30;99956.00;;;;5080442;28;19916;-62
2021/12/09 12:14:01;;;;;;;;;;;15.50;43.80;14.40;99948.00;;;;5081772;28;19943;-61
2021/12/09 12:29:05;;;;;;;;;;;15.50;43.90;14.40;99965.00;;;;5082102;28;20027;-62
2021/12/09 12:38:06;;;;;;;;;;;15.60;43.90;14.40;99958.00;;;;5089505;28;19966;-62
2021/12/09 12:41:16;;;;;;;;;;;15.60;43.90;14.40;99956.00;;;;5075456;28;19986;-62
2021/12/09 12:44:06;;;;;;;;;;;15.50;43.90;14.40;99956.00;;;;5060761;28;19920;-62
2021/12/09 12:46:58;;;;;;;;;;;15.50;43.90;14.40;99957.00;;;;5049510;28;19960;-62
2021/12/09 12:50:09;;;;;;;;;;;15.50;43.80;14.40;99954.00;;;;5064254;28;19963;-62
2021/12/09 12:52:57;;;;;;;;;;;15.50;43.90;14.40;99952.00;;;;5056696;28;19916;-62
2021/12/09 12:56:10;;;;;;;;;;;15.60;43.90;14.40;99958.00;;;;5058977;28;19917;-62
2021/12/09 13:02:08;;;;;;;;;;;15.50;43.90;14.40;99950.00;;;;5055188;28;19917;-62
2021/12/09 13:05:13;;;;;;;;;;;15.50;43.90;14.40;99944.00;;;;5061414;28;19922;-62
2021/12/09 13:08:27;;;;;;;;;;;15.60;43.90;14.40;99950.00;;;;5061494;28;20123;-62
2021/12/09 13:11:25;;;;;;;;;;;15.50;43.90;14.40;99950.00;;;;5064804;28;19924;-62
2021/12/09 13:14:20;;;;;;;;;;;15.50;43.90;14.40;99952.00;;;;5065815;28;20416;-62
2021/12/09 13:17:15;;;;;;;;;;;15.50;43.90;14.40;99946.00;;;;5045933;28;20267;-62
2021/12/09 13:20:15;;;;;;;;;;;15.60;43.90;14.40;99949.00;;;;5070300;28;19923;-62
2021/12/09 13:23:23;;;;;;;;;;;15.50;43.90;14.40;99956.00;;;;5057652;28;19920;-62
2021/12/09 13:26:24;;;;;;;;;;;15.50;43.90;14.40;99952.00;;;;5054924;28;19971;-62
2021/12/09 13:29:22;;;;;;;;;;;15.50;43.90;14.40;99963.00;;;;5060725;28;19920;-62
2021/12/09 13:32:48;;;;;;;;;;;15.50;43.90;14.40;99946.00;;;;5059111;28;19917;-62
2021/12/09 13:47:24;;;;;;;;;;;15.50;44.00;14.40;99955.00;;;;5072708;28;19917;-63
2021/12/09 13:56:22;;;;;;;;;;;15.50;43.60;14.40;99946.00;;;;5071118;28;22167;-61
2021/12/09 13:59:19;;;;;;;;;;;15.50;44.00;14.40;99942.00;;;;5074002;28;19916;-62
2021/12/09 14:02:19;;;;;;;;;;;15.50;44.00;14.40;99944.00;;;;5051343;28;19916;-61
2021/12/09 14:05:06;;;;;;;;;;;15.50;44.00;14.40;99943.00;;;;5071636;28;20386;-62
2021/12/09 14:08:03;;;;;;;;;;;15.50;44.00;14.40;99942.00;;;;5071864;28;19916;-62
2021/12/09 14:10:53;;;;;;;;;;;15.50;44.00;14.40;99940.00;;;;5066382;28;20334;-62
2021/12/09 14:13:41;;;;;;;;;;;15.50;44.00;14.40;99941.00;;;;5067728;28;19924;-62
2021/12/09 14:16:42;;;;;;;;;;;15.50;44.00;14.40;99937.00;;;;5059885;28;20534;-62
2021/12/09 14:22:41;;;;;;;;;;;15.50;44.00;14.40;99941.00;;;;5058873;28;19924;-62
2021/12/09 14:25:31;;;;;;;;;;;15.50;44.00;14.40;99941.00;;;;5071023;28;20469;-62
2021/12/09 14:28:18;;;;;;;;;;;15.50;44.10;14.40;99944.00;;;;5069422;28;20050;-62
2021/12/09 14:31:04;;;;;;;;;;;15.50;44.00;14.40;99936.00;;;;5052883;28;19955;-62
2021/12/09 14:33:50;;;;;;;;;;;15.50;44.00;14.40;99945.00;;;;5068532;28;20372;-62
2021/12/09 14:36:36;;;;;;;;;;;15.50;44.00;14.40;99941.00;;;;5052329;28;20062;-62
2021/12/09 14:39:22;;;;;;;;;;;15.50;44.00;14.40;99948.00;;;;5071589;28;20412;-62
2021/12/09 14:42:16;;;;;;;;;;;15.50;44.00;14.40;99943.00;;;;5059056;28;19924;-62
2021/12/09 14:45:08;;;;;;;;;;;15.50;44.00;14.40;99941.00;;;;5082776;28;19917;-62